Erofej Pavlovic, Russia
Current Conditions -  °F | °C
As of 2:30 PM on Tuesday 21 Oct 2014 (Local Time) from UHBB Reporting Station
Clear Clear  
Wind Chill: 23°   Ceiling: Unl
Heat Index: 32°   Visibility: 6mi
Dew Point: -2°   Wind: 11mph
Humidity: 23%   Direction: 290°WNW
Pressure: 30.09"   Gusts: NA
Location:  53.97°N, 121.93°E
Report Text: UHBB 210530Z 29005MPS 240V320 CAVOK M00/M19 Q1019 NOSIG RMKQFE747/0996 36090060
Loading
Personal Weather Stations






























Interactive Weather Map
Tropical Storm Tracking
New forecast layout! Learn more

10-Day Weather Forecast

Advertisements
Track Severe Weather on mobile